sensor_id;sensor_type;location;lat;lon;timestamp;P1;P2;P0
84282;PMS7003;74440;52.600;21.450;2024-03-08T00:01:48;21;17;11
84282;PMS7003;74440;52.600;21.450;2024-03-08T00:05:49;16;15;10
84282;PMS7003;74440;52.600;21.450;2024-03-08T00:09:51;16;15;11
84282;PMS7003;74440;52.600;21.450;2024-03-08T00:13:52;13;12;9
84282;PMS7003;74440;52.600;21.450;2024-03-08T00:17:57;13;12;8
84282;PMS7003;74440;52.600;21.450;2024-03-08T00:21:59;13;12;8
84282;PMS7003;74440;52.600;21.450;2024-03-08T00:26:01;20;15;11
84282;PMS7003;74440;52.600;21.450;2024-03-08T00:30:14;20;19;12
84282;PMS7003;74440;52.600;21.450;2024-03-08T00:34:16;20;18;12
84282;PMS7003;74440;52.600;21.450;2024-03-08T00:38:17;27;21;14
84282;PMS7003;74440;52.600;21.450;2024-03-08T00:42:19;26;22;12
84282;PMS7003;74440;52.600;21.450;2024-03-08T00:46:21;37;31;18
84282;PMS7003;74440;52.600;21.450;2024-03-08T00:50:23;29;23;16
84282;PMS7003;74440;52.600;21.450;2024-03-08T00:54:24;29;24;15
84282;PMS7003;74440;52.600;21.450;2024-03-08T00:58:26;28;24;15
84282;PMS7003;74440;52.600;21.450;2024-03-08T01:02:28;29;23;15
84282;PMS7003;74440;52.600;21.450;2024-03-08T01:06:44;26;21;15
84282;PMS7003;74440;52.600;21.450;2024-03-08T01:10:48;27;23;17
84282;PMS7003;74440;52.600;21.450;2024-03-08T01:14:51;25;24;14
84282;PMS7003;74440;52.600;21.450;2024-03-08T01:18:52;23;19;15
84282;PMS7003;74440;52.600;21.450;2024-03-08T01:22:54;19;19;12
84282;PMS7003;74440;52.600;21.450;2024-03-08T01:26:55;29;25;16
84282;PMS7003;74440;52.600;21.450;2024-03-08T01:30:57;25;22;14
84282;PMS7003;74440;52.600;21.450;2024-03-08T01:34:58;27;25;16
84282;PMS7003;74440;52.600;21.450;2024-03-08T01:38:59;28;26;17
84282;PMS7003;74440;52.600;21.450;2024-03-08T01:43:18;27;25;16
84282;PMS7003;74440;52.600;21.450;2024-03-08T01:47:25;35;30;19
84282;PMS7003;74440;52.600;21.450;2024-03-08T01:51:27;30;24;17
84282;PMS7003;74440;52.600;21.450;2024-03-08T01:55:31;32;27;18
84282;PMS7003;74440;52.600;21.450;2024-03-08T01:59:33;24;19;12
84282;PMS7003;74440;52.600;21.450;2024-03-08T02:03:46;38;30;19
84282;PMS7003;74440;52.600;21.450;2024-03-08T02:07:47;32;29;19
84282;PMS7003;74440;52.600;21.450;2024-03-08T02:11:49;36;29;17
84282;PMS7003;74440;52.600;21.450;2024-03-08T02:15:53;26;24;15
84282;PMS7003;74440;52.600;21.450;2024-03-08T02:19:56;39;31;19
84282;PMS7003;74440;52.600;21.450;2024-03-08T02:23:57;34;31;19
84282;PMS7003;74440;52.600;21.450;2024-03-08T02:28:00;19;17;11
84282;PMS7003;74440;52.600;21.450;2024-03-08T02:32:01;32;26;16
84282;PMS7003;74440;52.600;21.450;2024-03-08T02:36:04;29;25;13
84282;PMS7003;74440;52.600;21.450;2024-03-08T02:40:16;28;24;15
84282;PMS7003;74440;52.600;21.450;2024-03-08T02:44:17;28;24;16
84282;PMS7003;74440;52.600;21.450;2024-03-08T02:48:18;21;15;9
84282;PMS7003;74440;52.600;21.450;2024-03-08T02:52:21;24;21;14
84282;PMS7003;74440;52.600;21.450;2024-03-08T02:56:22;15;10;2
84282;PMS7003;74440;52.600;21.450;2024-03-08T03:00:24;18;16;11
84282;PMS7003;74440;52.600;21.450;2024-03-08T03:04:25;28;24;14
84282;PMS7003;74440;52.600;21.450;2024-03-08T03:08:26;21;17;12
84282;PMS7003;74440;52.600;21.450;2024-03-08T03:12:29;25;16;11
84282;PMS7003;74440;52.600;21.450;2024-03-08T03:16:46;20;17;11
84282;PMS7003;74440;52.600;21.450;2024-03-08T03:20:47;23;19;13
84282;PMS7003;74440;52.600;21.450;2024-03-08T03:24:49;25;21;14
84282;PMS7003;74440;52.600;21.450;2024-03-08T03:28:53;30;22;15
84282;PMS7003;74440;52.600;21.450;2024-03-08T03:32:55;23;19;15
84282;PMS7003;74440;52.600;21.450;2024-03-08T03:37:01;24;22;15
84282;PMS7003;74440;52.600;21.450;2024-03-08T03:41:03;39;35;23
84282;PMS7003;74440;52.600;21.450;2024-03-08T03:45:14;40;31;18
84282;PMS7003;74440;52.600;21.450;2024-03-08T03:49:20;31;29;13
84282;PMS7003;74440;52.600;21.450;2024-03-08T03:53:22;27;23;14
84282;PMS7003;74440;52.600;21.450;2024-03-08T03:57:23;24;18;14
84282;PMS7003;74440;52.600;21.450;2024-03-08T04:01:24;29;23;15
84282;PMS7003;74440;52.600;21.450;2024-03-08T04:05:26;27;23;15
84282;PMS7003;74440;52.600;21.450;2024-03-08T04:09:27;20;16;11
84282;PMS7003;74440;52.600;21.450;2024-03-08T04:13:29;18;17;10
84282;PMS7003;74440;52.600;21.450;2024-03-08T04:17:30;25;21;12
84282;PMS7003;74440;52.600;21.450;2024-03-08T04:21:32;29;26;15
84282;PMS7003;74440;52.600;21.450;2024-03-08T04:25:33;16;15;13
84282;PMS7003;74440;52.600;21.450;2024-03-08T04:29:48;34;20;13
84282;PMS7003;74440;52.600;21.450;2024-03-08T04:33:49;25;20;13
84282;PMS7003;74440;52.600;21.450;2024-03-08T04:37:51;23;21;14
84282;PMS7003;74440;52.600;21.450;2024-03-08T04:41:52;29;24;15
84282;PMS7003;74440;52.600;21.450;2024-03-08T04:45:55;31;24;16
84282;PMS7003;74440;52.600;21.450;2024-03-08T04:49:59;27;21;15
84282;PMS7003;74440;52.600;21.450;2024-03-08T04:54:00;31;26;15
84282;PMS7003;74440;52.600;21.450;2024-03-08T04:58:02;33;27;15
84282;PMS7003;74440;52.600;21.450;2024-03-08T05:02:07;32;27;17
84282;PMS7003;74440;52.600;21.450;2024-03-08T05:06:18;32;25;17
84282;PMS7003;74440;52.600;21.450;2024-03-08T05:10:21;27;24;14
84282;PMS7003;74440;52.600;21.450;2024-03-08T05:14:23;32;26;16
84282;PMS7003;74440;52.600;21.450;2024-03-08T05:18:26;31;27;15
84282;PMS7003;74440;52.600;21.450;2024-03-08T05:22:29;21;20;12
84282;PMS7003;74440;52.600;21.450;2024-03-08T05:26:30;27;25;17
84282;PMS7003;74440;52.600;21.450;2024-03-08T05:30:33;29;24;15
84282;PMS7003;74440;52.600;21.450;2024-03-08T05:34:36;36;28;16
84282;PMS7003;74440;52.600;21.450;2024-03-08T05:38:39;40;33;22
84282;PMS7003;74440;52.600;21.450;2024-03-08T05:42:48;31;29;20
84282;PMS7003;74440;52.600;21.450;2024-03-08T05:46:50;42;34;23
84282;PMS7003;74440;52.600;21.450;2024-03-08T05:50:51;60;48;30
84282;PMS7003;74440;52.600;21.450;2024-03-08T05:54:53;54;44;29
84282;PMS7003;74440;52.600;21.450;2024-03-08T05:58:54;87;75;46
84282;PMS7003;74440;52.600;21.450;2024-03-08T06:02:55;78;61;38
84282;PMS7003;74440;52.600;21.450;2024-03-08T06:06:57;69;54;34
84282;PMS7003;74440;52.600;21.450;2024-03-08T06:10:59;68;55;35
84282;PMS7003;74440;52.600;21.450;2024-03-08T06:15:03;70;54;35
84282;PMS7003;74440;52.600;21.450;2024-03-08T06:19:18;67;52;34
84282;PMS7003;74440;52.600;21.450;2024-03-08T06:23:19;66;50;34
84282;PMS7003;74440;52.600;21.450;2024-03-08T06:27:22;69;55;36
84282;PMS7003;74440;52.600;21.450;2024-03-08T06:31:24;80;69;43
84282;PMS7003;74440;52.600;21.450;2024-03-08T06:35:25;76;63;41
84282;PMS7003;74440;52.600;21.450;2024-03-08T06:39:27;74;63;41
84282;PMS7003;74440;52.600;21.450;2024-03-08T06:43:33;80;70;46
84282;PMS7003;74440;52.600;21.450;2024-03-08T06:47:35;78;66;42
84282;PMS7003;74440;52.600;21.450;2024-03-08T06:51:37;83;77;48
84282;PMS7003;74440;52.600;21.450;2024-03-08T06:55:47;89;78;48
84282;PMS7003;74440;52.600;21.450;2024-03-08T06:59:49;79;72;45
84282;PMS7003;74440;52.600;21.450;2024-03-08T07:03:52;78;68;42
84282;PMS7003;74440;52.600;21.450;2024-03-08T07:07:56;74;64;41
84282;PMS7003;74440;52.600;21.450;2024-03-08T07:11:57;80;73;46
84282;PMS7003;74440;52.600;21.450;2024-03-08T07:15:58;84;78;49
84282;PMS7003;74440;52.600;21.450;2024-03-08T07:20:01;75;65;40
84282;PMS7003;74440;52.600;21.450;2024-03-08T07:24:12;76;66;43
84282;PMS7003;74440;52.600;21.450;2024-03-08T07:28:24;73;67;43
84282;PMS7003;74440;52.600;21.450;2024-03-08T07:32:26;71;62;41
84282;PMS7003;74440;52.600;21.450;2024-03-08T07:36:32;77;67;44
84282;PMS7003;74440;52.600;21.450;2024-03-08T07:40:35;68;55;36
84282;PMS7003;74440;52.600;21.450;2024-03-08T07:44:41;61;50;33
84282;PMS7003;74440;52.600;21.450;2024-03-08T07:48:42;70;58;37
84282;PMS7003;74440;52.600;21.450;2024-03-08T07:52:49;59;48;32
84282;PMS7003;74440;52.600;21.450;2024-03-08T07:56:51;58;46;30
84282;PMS7003;74440;52.600;21.450;2024-03-08T08:00:53;51;42;28
84282;PMS7003;74440;52.600;21.450;2024-03-08T08:04:55;44;37;24
84282;PMS7003;74440;52.600;21.450;2024-03-08T08:09:00;34;29;21
84282;PMS7003;74440;52.600;21.450;2024-03-08T08:13:01;40;32;21
84282;PMS7003;74440;52.600;21.450;2024-03-08T08:17:05;36;31;20
84282;PMS7003;74440;52.600;21.450;2024-03-08T08:21:09;42;34;23
84282;PMS7003;74440;52.600;21.450;2024-03-08T08:25:11;44;36;25
84282;PMS7003;74440;52.600;21.450;2024-03-08T08:29:19;44;35;23
84282;PMS7003;74440;52.600;21.450;2024-03-08T08:33:21;42;33;23
84282;PMS7003;74440;52.600;21.450;2024-03-08T08:37:22;34;29;20
84282;PMS7003;74440;52.600;21.450;2024-03-08T08:41:24;41;30;20
84282;PMS7003;74440;52.600;21.450;2024-03-08T08:45:26;23;22;17
84282;PMS7003;74440;52.600;21.450;2024-03-08T08:49:27;21;19;14
84282;PMS7003;74440;52.600;21.450;2024-03-08T08:53:29;22;18;14
84282;PMS7003;74440;52.600;21.450;2024-03-08T08:57:30;28;25;16
84282;PMS7003;74440;52.600;21.450;2024-03-08T09:01:33;25;25;16
84282;PMS7003;74440;52.600;21.450;2024-03-08T09:05:47;21;20;16
84282;PMS7003;74440;52.600;21.450;2024-03-08T09:09:48;20;20;14
84282;PMS7003;74440;52.600;21.450;2024-03-08T09:13:50;24;20;13
84282;PMS7003;74440;52.600;21.450;2024-03-08T09:17:51;21;19;13
84282;PMS7003;74440;52.600;21.450;2024-03-08T09:21:52;24;21;14
84282;PMS7003;74440;52.600;21.450;2024-03-08T09:25:54;21;19;14
84282;PMS7003;74440;52.600;21.450;2024-03-08T09:29:56;19;16;11
84282;PMS7003;74440;52.600;21.450;2024-03-08T09:33:57;17;16;12
84282;PMS7003;74440;52.600;21.450;2024-03-08T09:37:59;15;14;11
84282;PMS7003;74440;52.600;21.450;2024-03-08T09:42:15;18;17;12
84282;PMS7003;74440;52.600;21.450;2024-03-08T09:46:18;18;16;13
84282;PMS7003;74440;52.600;21.450;2024-03-08T09:50:23;17;16;12
84282;PMS7003;74440;52.600;21.450;2024-03-08T09:54:28;19;17;12
84282;PMS7003;74440;52.600;21.450;2024-03-08T09:58:30;21;16;12
84282;PMS7003;74440;52.600;21.450;2024-03-08T10:02:45;24;21;15
84282;PMS7003;74440;52.600;21.450;2024-03-08T10:06:47;17;16;12
84282;PMS7003;74440;52.600;21.450;2024-03-08T10:10:50;19;19;14
84282;PMS7003;74440;52.600;21.450;2024-03-08T10:14:54;15;12;9
84282;PMS7003;74440;52.600;21.450;2024-03-08T10:18:57;14;13;11
84282;PMS7003;74440;52.600;21.450;2024-03-08T10:22:59;16;14;10
84282;PMS7003;74440;52.600;21.450;2024-03-08T10:27:05;17;17;11
84282;PMS7003;74440;52.600;21.450;2024-03-08T10:31:08;18;17;12
84282;PMS7003;74440;52.600;21.450;2024-03-08T10:35:10;17;15;11
84282;PMS7003;74440;52.600;21.450;2024-03-08T10:39:23;16;15;11
84282;PMS7003;74440;52.600;21.450;2024-03-08T10:43:25;18;17;12
84282;PMS7003;74440;52.600;21.450;2024-03-08T10:47:40;19;17;10
84282;PMS7003;74440;52.600;21.450;2024-03-08T10:51:44;14;14;11
84282;PMS7003;74440;52.600;21.450;2024-03-08T10:55:48;17;16;12
84282;PMS7003;74440;52.600;21.450;2024-03-08T10:59:53;19;16;10
84282;PMS7003;74440;52.600;21.450;2024-03-08T11:03:58;15;14;11
84282;PMS7003;74440;52.600;21.450;2024-03-08T11:08:01;16;16;11
84282;PMS7003;74440;52.600;21.450;2024-03-08T11:20:33;21;18;13
84282;PMS7003;74440;52.600;21.450;2024-03-08T11:24:37;20;19;12
84282;PMS7003;74440;52.600;21.450;2024-03-08T11:28:43;23;22;14
84282;PMS7003;74440;52.600;21.450;2024-03-08T11:32:47;19;17;12
84282;PMS7003;74440;52.600;21.450;2024-03-08T11:36:48;20;18;12
84282;PMS7003;74440;52.600;21.450;2024-03-08T11:40:57;15;14;11
84282;PMS7003;74440;52.600;21.450;2024-03-08T11:44:58;17;16;11
84282;PMS7003;74440;52.600;21.450;2024-03-08T11:49:00;15;13;8
84282;PMS7003;74440;52.600;21.450;2024-03-08T11:53:02;19;18;13
84282;PMS7003;74440;52.600;21.450;2024-03-08T11:57:04;17;14;11
84282;PMS7003;74440;52.600;21.450;2024-03-08T12:01:07;21;18;12
84282;PMS7003;74440;52.600;21.450;2024-03-08T12:05:17;20;18;12
84282;PMS7003;74440;52.600;21.450;2024-03-08T12:09:20;16;16;9
84282;PMS7003;74440;52.600;21.450;2024-03-08T12:13:23;20;16;9
84282;PMS7003;74440;52.600;21.450;2024-03-08T12:17:31;15;15;11
84282;PMS7003;74440;52.600;21.450;2024-03-08T12:21:33;20;18;11
84282;PMS7003;74440;52.600;21.450;2024-03-08T12:25:37;16;14;10
84282;PMS7003;74440;52.600;21.450;2024-03-08T12:29:39;16;15;11
84282;PMS7003;74440;52.600;21.450;2024-03-08T12:38:02;16;14;9
84282;PMS7003;74440;52.600;21.450;2024-03-08T12:42:06;15;14;10
84282;PMS7003;74440;52.600;21.450;2024-03-08T12:46:07;17;14;9
84282;PMS7003;74440;52.600;21.450;2024-03-08T12:50:10;16;14;10
84282;PMS7003;74440;52.600;21.450;2024-03-08T12:54:12;17;13;9
84282;PMS7003;74440;52.600;21.450;2024-03-08T12:58:13;12;12;9
84282;PMS7003;74440;52.600;21.450;2024-03-08T13:02:17;16;14;9
84282;PMS7003;74440;52.600;21.450;2024-03-08T13:07:08;18;15;10
84282;PMS7003;74440;52.600;21.450;2024-03-08T13:11:10;14;13;9
84282;PMS7003;74440;52.600;21.450;2024-03-08T13:15:18;15;14;10
84282;PMS7003;74440;52.600;21.450;2024-03-08T13:19:23;14;13;9
84282;PMS7003;74440;52.600;21.450;2024-03-08T13:23:40;12;11;9
84282;PMS7003;74440;52.600;21.450;2024-03-08T13:27:50;15;14;10
84282;PMS7003;74440;52.600;21.450;2024-03-08T13:31:54;16;14;10
84282;PMS7003;74440;52.600;21.450;2024-03-08T13:36:02;15;13;10
84282;PMS7003;74440;52.600;21.450;2024-03-08T13:40:11;25;19;11
84282;PMS7003;74440;52.600;21.450;2024-03-08T13:44:14;25;17;9
84282;PMS7003;74440;52.600;21.450;2024-03-08T13:48:17;15;15;10
84282;PMS7003;74440;52.600;21.450;2024-03-08T13:52:23;14;12;9
84282;PMS7003;74440;52.600;21.450;2024-03-08T13:56:30;17;16;10
84282;PMS7003;74440;52.600;21.450;2024-03-08T14:00:32;15;13;10
84282;PMS7003;74440;52.600;21.450;2024-03-08T14:04:41;18;14;9
84282;PMS7003;74440;52.600;21.450;2024-03-08T14:08:43;15;13;9
84282;PMS7003;74440;52.600;21.450;2024-03-08T14:12:44;14;13;9
84282;PMS7003;74440;52.600;21.450;2024-03-08T14:16:49;14;13;10
84282;PMS7003;74440;52.600;21.450;2024-03-08T14:20:58;17;14;10
84282;PMS7003;74440;52.600;21.450;2024-03-08T14:25:13;14;12;10
84282;PMS7003;74440;52.600;21.450;2024-03-08T14:29:17;14;12;8
84282;PMS7003;74440;52.600;21.450;2024-03-08T14:33:19;11;10;8
84282;PMS7003;74440;52.600;21.450;2024-03-08T14:37:20;10;9;6
84282;PMS7003;74440;52.600;21.450;2024-03-08T14:41:29;10;7;6
84282;PMS7003;74440;52.600;21.450;2024-03-08T14:45:44;11;10;8
84282;PMS7003;74440;52.600;21.450;2024-03-08T14:49:48;11;11;6
84282;PMS7003;74440;52.600;21.450;2024-03-08T14:53:50;9;7;6
84282;PMS7003;74440;52.600;21.450;2024-03-08T14:57:51;11;9;8
84282;PMS7003;74440;52.600;21.450;2024-03-08T15:01:54;11;10;8
84282;PMS7003;74440;52.600;21.450;2024-03-08T15:05:56;10;9;7
84282;PMS7003;74440;52.600;21.450;2024-03-08T15:09:57;14;10;7
84282;PMS7003;74440;52.600;21.450;2024-03-08T15:13:58;12;10;7
84282;PMS7003;74440;52.600;21.450;2024-03-08T15:18:02;14;10;7
84282;PMS7003;74440;52.600;21.450;2024-03-08T15:22:12;13;12;9
84282;PMS7003;74440;52.600;21.450;2024-03-08T15:26:14;21;21;13
84282;PMS7003;74440;52.600;21.450;2024-03-08T15:30:15;16;14;10
84282;PMS7003;74440;52.600;21.450;2024-03-08T15:34:18;11;8;6
84282;PMS7003;74440;52.600;21.450;2024-03-08T15:38:25;5;5;4
84282;PMS7003;74440;52.600;21.450;2024-03-08T15:42:43;9;8;5
84282;PMS7003;74440;52.600;21.450;2024-03-08T15:46:45;8;8;6
84282;PMS7003;74440;52.600;21.450;2024-03-08T15:50:47;6;4;4
84282;PMS7003;74440;52.600;21.450;2024-03-08T15:54:51;9;7;4
84282;PMS7003;74440;52.600;21.450;2024-03-08T15:58:54;5;5;4
84282;PMS7003;74440;52.600;21.450;2024-03-08T16:02:56;5;4;3
84282;PMS7003;74440;52.600;21.450;2024-03-08T16:06:58;8;7;5
84282;PMS7003;74440;52.600;21.450;2024-03-08T16:11:01;7;7;4
84282;PMS7003;74440;52.600;21.450;2024-03-08T16:15:08;9;8;5
84282;PMS7003;74440;52.600;21.450;2024-03-08T16:19:13;6;6;4
84282;PMS7003;74440;52.600;21.450;2024-03-08T16:23:14;8;8;5
84282;PMS7003;74440;52.600;21.450;2024-03-08T16:27:17;9;8;5
84282;PMS7003;74440;52.600;21.450;2024-03-08T16:31:18;9;7;5
84282;PMS7003;74440;52.600;21.450;2024-03-08T16:35:20;13;8;6
84282;PMS7003;74440;52.600;21.450;2024-03-08T16:39:22;10;8;6
84282;PMS7003;74440;52.600;21.450;2024-03-08T16:43:29;11;11;8
84282;PMS7003;74440;52.600;21.450;2024-03-08T16:47:35;12;10;8
84282;PMS7003;74440;52.600;21.450;2024-03-08T16:51:37;11;10;7
84282;PMS7003;74440;52.600;21.450;2024-03-08T16:55:44;11;10;7
84282;PMS7003;74440;52.600;21.450;2024-03-08T16:59:47;9;7;6
84282;PMS7003;74440;52.600;21.450;2024-03-08T17:03:49;9;9;6
84282;PMS7003;74440;52.600;21.450;2024-03-08T17:07:52;11;10;7
84282;PMS7003;74440;52.600;21.450;2024-03-08T17:11:55;12;10;7
84282;PMS7003;74440;52.600;21.450;2024-03-08T17:15:56;11;9;8
84282;PMS7003;74440;52.600;21.450;2024-03-08T17:20:06;11;10;6
84282;PMS7003;74440;52.600;21.450;2024-03-08T17:24:21;16;13;11
84282;PMS7003;74440;52.600;21.450;2024-03-08T17:28:28;15;13;11
84282;PMS7003;74440;52.600;21.450;2024-03-08T17:32:42;26;21;13
84282;PMS7003;74440;52.600;21.450;2024-03-08T17:36:50;27;20;13
84282;PMS7003;74440;52.600;21.450;2024-03-08T17:40:58;32;26;17
84282;PMS7003;74440;52.600;21.450;2024-03-08T17:45:00;26;23;16
84282;PMS7003;74440;52.600;21.450;2024-03-08T17:49:09;46;37;23
84282;PMS7003;74440;52.600;21.450;2024-03-08T17:53:12;50;39;25
84282;PMS7003;74440;52.600;21.450;2024-03-08T17:57:27;50;40;26
84282;PMS7003;74440;52.600;21.450;2024-03-08T18:01:31;37;32;18
84282;PMS7003;74440;52.600;21.450;2024-03-08T18:09:44;42;36;22
84282;PMS7003;74440;52.600;21.450;2024-03-08T18:13:46;46;38;23
84282;PMS7003;74440;52.600;21.450;2024-03-08T18:17:55;34;30;20
84282;PMS7003;74440;52.600;21.450;2024-03-08T18:22:08;30;28;19
84282;PMS7003;74440;52.600;21.450;2024-03-08T18:26:12;52;38;23
84282;PMS7003;74440;52.600;21.450;2024-03-08T18:30:13;38;33;20
84282;PMS7003;74440;52.600;21.450;2024-03-08T18:34:19;40;35;22
84282;PMS7003;74440;52.600;21.450;2024-03-08T18:38:27;40;32;22
84282;PMS7003;74440;52.600;21.450;2024-03-08T18:42:28;37;31;18
84282;PMS7003;74440;52.600;21.450;2024-03-08T18:46:30;35;32;21
84282;PMS7003;74440;52.600;21.450;2024-03-08T18:50:33;48;38;25
84282;PMS7003;74440;52.600;21.450;2024-03-08T18:54:35;44;37;24
84282;PMS7003;74440;52.600;21.450;2024-03-08T18:58:37;48;39;29
84282;PMS7003;74440;52.600;21.450;2024-03-08T19:02:40;58;45;28
84282;PMS7003;74440;52.600;21.450;2024-03-08T19:06:43;49;42;29
84282;PMS7003;74440;52.600;21.450;2024-03-08T19:10:44;55;39;27
84282;PMS7003;74440;52.600;21.450;2024-03-08T19:14:56;56;45;28
84282;PMS7003;74440;52.600;21.450;2024-03-08T19:18:59;67;49;31
84282;PMS7003;74440;52.600;21.450;2024-03-08T19:23:01;78;59;38
84282;PMS7003;74440;52.600;21.450;2024-03-08T19:27:03;86;63;41
84282;PMS7003;74440;52.600;21.450;2024-03-08T19:31:12;46;31;10
84282;PMS7003;74440;52.600;21.450;2024-03-08T19:35:31;65;49;31
84282;PMS7003;74440;52.600;21.450;2024-03-08T19:39:32;51;40;24
84282;PMS7003;74440;52.600;21.450;2024-03-08T19:43:35;65;49;30
84282;PMS7003;74440;52.600;21.450;2024-03-08T19:47:39;56;45;27
84282;PMS7003;74440;52.600;21.450;2024-03-08T19:51:43;53;42;27
84282;PMS7003;74440;52.600;21.450;2024-03-08T19:56:00;47;36;24
84282;PMS7003;74440;52.600;21.450;2024-03-08T20:00:03;50;40;24
84282;PMS7003;74440;52.600;21.450;2024-03-08T20:04:14;56;45;28
84282;PMS7003;74440;52.600;21.450;2024-03-08T20:08:16;84;66;38
84282;PMS7003;74440;52.600;21.450;2024-03-08T20:12:21;88;64;38
84282;PMS7003;74440;52.600;21.450;2024-03-08T20:16:32;94;72;43
84282;PMS7003;74440;52.600;21.450;2024-03-08T20:20:33;90;67;40
84282;PMS7003;74440;52.600;21.450;2024-03-08T20:24:36;78;59;36
84282;PMS7003;74440;52.600;21.450;2024-03-08T20:28:39;81;58;33
84282;PMS7003;74440;52.600;21.450;2024-03-08T20:32:42;103;83;46
84282;PMS7003;74440;52.600;21.450;2024-03-08T20:36:43;130;102;51
84282;PMS7003;74440;52.600;21.450;2024-03-08T20:40:45;115;93;49
84282;PMS7003;74440;52.600;21.450;2024-03-08T20:44:47;88;71;41
84282;PMS7003;74440;52.600;21.450;2024-03-08T20:48:49;103;77;43
84282;PMS7003;74440;52.600;21.450;2024-03-08T20:53:06;105;89;49
84282;PMS7003;74440;52.600;21.450;2024-03-08T20:57:11;101;82;46
84282;PMS7003;74440;52.600;21.450;2024-03-08T21:01:13;95;74;41
84282;PMS7003;74440;52.600;21.450;2024-03-08T21:05:15;84;64;37
84282;PMS7003;74440;52.600;21.450;2024-03-08T21:09:19;83;64;38
84282;PMS7003;74440;52.600;21.450;2024-03-08T21:13:34;91;71;39
84282;PMS7003;74440;52.600;21.450;2024-03-08T21:17:37;87;66;39
84282;PMS7003;74440;52.600;21.450;2024-03-08T21:21:39;76;59;35
84282;PMS7003;74440;52.600;21.450;2024-03-08T21:25:41;76;58;35
84282;PMS7003;74440;52.600;21.450;2024-03-08T21:29:43;87;68;40
84282;PMS7003;74440;52.600;21.450;2024-03-08T21:33:46;87;64;40
84282;PMS7003;74440;52.600;21.450;2024-03-08T21:37:49;74;57;36
84282;PMS7003;74440;52.600;21.450;2024-03-08T21:41:51;78;59;36
84282;PMS7003;74440;52.600;21.450;2024-03-08T21:45:55;77;58;35
84282;PMS7003;74440;52.600;21.450;2024-03-08T21:50:05;94;74;42
84282;PMS7003;74440;52.600;21.450;2024-03-08T21:54:14;87;73;41
84282;PMS7003;74440;52.600;21.450;2024-03-08T21:58:18;94;72;42
84282;PMS7003;74440;52.600;21.450;2024-03-08T22:02:20;90;71;40
84282;PMS7003;74440;52.600;21.450;2024-03-08T22:06:21;91;70;40
84282;PMS7003;74440;52.600;21.450;2024-03-08T22:10:38;90;70;40
84282;PMS7003;74440;52.600;21.450;2024-03-08T22:14:45;85;66;41
84282;PMS7003;74440;52.600;21.450;2024-03-08T22:18:46;83;64;38
84282;PMS7003;74440;52.600;21.450;2024-03-08T22:22:48;84;62;37
84282;PMS7003;74440;52.600;21.450;2024-03-08T22:26:53;85;64;38
84282;PMS7003;74440;52.600;21.450;2024-03-08T22:31:09;82;63;38
84282;PMS7003;74440;52.600;21.450;2024-03-08T22:35:10;81;63;38
84282;PMS7003;74440;52.600;21.450;2024-03-08T22:39:12;80;63;38
84282;PMS7003;74440;52.600;21.450;2024-03-08T22:43:19;91;68;41
84282;PMS7003;74440;52.600;21.450;2024-03-08T22:47:20;85;65;38
84282;PMS7003;74440;52.600;21.450;2024-03-08T22:51:22;84;66;39
84282;PMS7003;74440;52.600;21.450;2024-03-08T22:55:27;100;78;42
84282;PMS7003;74440;52.600;21.450;2024-03-08T22:59:28;88;67;39
84282;PMS7003;74440;52.600;21.450;2024-03-08T23:03:29;100;75;43
84282;PMS7003;74440;52.600;21.450;2024-03-08T23:07:42;102;87;48
84282;PMS7003;74440;52.600;21.450;2024-03-08T23:11:44;117;86;47
84282;PMS7003;74440;52.600;21.450;2024-03-08T23:15:47;102;77;46
84282;PMS7003;74440;52.600;21.450;2024-03-08T23:19:48;91;69;40
84282;PMS7003;74440;52.600;21.450;2024-03-08T23:23:53;90;71;43
84282;PMS7003;74440;52.600;21.450;2024-03-08T23:27:55;94;76;46
84282;PMS7003;74440;52.600;21.450;2024-03-08T23:31:58;72;57;36
84282;PMS7003;74440;52.600;21.450;2024-03-08T23:36:00;65;51;31
84282;PMS7003;74440;52.600;21.450;2024-03-08T23:40:02;65;49;29
84282;PMS7003;74440;52.600;21.450;2024-03-08T23:44:13;53;44;29
84282;PMS7003;74440;52.600;21.450;2024-03-08T23:48:14;61;48;28
84282;PMS7003;74440;52.600;21.450;2024-03-08T23:52:17;49;42;23
84282;PMS7003;74440;52.600;21.450;2024-03-08T23:56:18;53;43;26
